createdAt,value
2023-03-25T00:00:39.587Z,0.43
2023-03-25T00:03:09.228Z,0.50
2023-03-25T00:05:40.418Z,0.50
2023-03-25T00:08:07.998Z,0.30
2023-03-25T00:10:35.575Z,0.43
2023-03-25T00:13:05.471Z,0.98
2023-03-25T00:15:34.689Z,0.43
2023-03-25T00:18:02.683Z,0.40
2023-03-25T00:20:32.443Z,0.40
2023-03-25T00:23:00.032Z,0.45
2023-03-25T00:25:27.617Z,0.77
2023-03-25T00:27:55.190Z,0.35
2023-03-25T00:30:22.771Z,0.43
2023-03-25T00:32:52.845Z,0.82
2023-03-25T00:35:21.726Z,0.38
2023-03-25T00:37:57.290Z,0.60
2023-03-25T00:40:25.346Z,0.43
2023-03-25T00:42:52.930Z,0.40
2023-03-25T00:45:20.899Z,0.57
2023-03-25T00:47:48.560Z,0.40
2023-03-25T00:50:17.582Z,0.50
2023-03-25T00:52:45.180Z,0.40
2023-03-25T00:55:12.826Z,0.70
2023-03-25T00:57:40.562Z,0.57
2023-03-25T01:00:09.689Z,0.70
2023-03-25T01:02:39.380Z,0.60
2023-03-25T01:05:07.721Z,0.52
2023-03-25T01:07:36.781Z,0.50
2023-03-25T01:10:06.842Z,0.70
2023-03-25T01:12:34.437Z,0.40
2023-03-25T01:15:02.093Z,0.40
2023-03-25T01:17:29.711Z,0.63
2023-03-25T01:19:57.465Z,0.52
2023-03-25T01:22:25.033Z,0.70
2023-03-25T01:24:53.979Z,0.88
2023-03-25T01:27:21.564Z,0.52
2023-03-25T01:29:49.260Z,0.55
2023-03-25T01:32:16.926Z,0.50
2023-03-25T01:34:44.873Z,0.50
2023-03-25T01:37:12.731Z,0.55
2023-03-25T01:39:40.432Z,0.50
2023-03-25T01:42:11.725Z,0.38
2023-03-25T01:44:58.005Z,0.50
2023-03-25T01:47:26.727Z,0.50
2023-03-25T01:49:54.536Z,0.50
2023-03-25T01:52:25.002Z,0.40
2023-03-25T01:54:54.424Z,0.47
2023-03-25T01:57:24.534Z,0.40
2023-03-25T01:59:52.929Z,0.60
2023-03-25T02:02:20.920Z,0.50
2023-03-25T02:04:51.716Z,0.50
2023-03-25T02:07:19.907Z,0.40
2023-03-25T02:09:47.515Z,0.45
2023-03-25T02:12:15.324Z,0.70
2023-03-25T02:14:46.054Z,0.45
2023-03-25T02:17:18.060Z,0.50
2023-03-25T02:20:08.987Z,0.40
2023-03-25T02:22:49.834Z,0.57
2023-03-25T02:25:24.111Z,0.68
2023-03-25T02:27:58.458Z,0.57
2023-03-25T02:30:46.682Z,0.30
2023-03-25T02:33:35.325Z,0.70
2023-03-25T02:36:22.091Z,0.45
2023-03-25T02:38:51.978Z,0.50
2023-03-25T02:41:24.018Z,0.70
2023-03-25T02:43:56.421Z,0.90
2023-03-25T02:46:24.470Z,0.60
2023-03-25T02:48:54.596Z,0.60
2023-03-25T02:51:24.925Z,0.82
2023-03-25T02:53:55.290Z,0.60
2023-03-25T02:56:25.544Z,0.40
2023-03-25T02:58:55.464Z,0.90
2023-03-25T03:01:26.909Z,0.60
2023-03-25T03:03:56.220Z,0.57
2023-03-25T03:06:25.289Z,0.50
2023-03-25T03:09:02.160Z,0.77
2023-03-25T03:11:31.025Z,0.63
2023-03-25T03:14:09.232Z,0.35
2023-03-25T03:16:41.970Z,0.80
2023-03-25T03:19:21.194Z,0.40
2023-03-25T03:21:54.105Z,0.70
2023-03-25T03:24:27.020Z,0.38
2023-03-25T03:26:57.596Z,0.60
2023-03-25T03:29:28.556Z,0.88
2023-03-25T03:32:06.119Z,0.68
2023-03-25T03:34:36.571Z,0.80
2023-03-25T03:37:04.687Z,0.65
2023-03-25T03:39:35.938Z,0.70
2023-03-25T03:42:07.731Z,0.43
2023-03-25T03:44:36.724Z,0.43
2023-03-25T03:47:05.556Z,0.68
2023-03-25T03:49:38.279Z,0.75
2023-03-25T03:52:09.598Z,0.45
2023-03-25T03:54:40.871Z,0.80
2023-03-25T03:57:10.969Z,0.60
2023-03-25T03:59:40.185Z,0.75
2023-03-25T04:02:12.227Z,1.00
2023-03-25T04:04:42.654Z,0.50
2023-03-25T04:07:14.702Z,0.60
2023-03-25T04:09:54.835Z,0.77
2023-03-25T04:12:24.004Z,0.57
2023-03-25T04:14:51.598Z,0.40
2023-03-25T04:17:19.245Z,0.80
2023-03-25T04:19:48.827Z,0.65
2023-03-25T04:22:17.288Z,1.00
2023-03-25T04:24:49.638Z,0.75
2023-03-25T04:27:17.502Z,0.65
2023-03-25T04:29:45.105Z,0.75
2023-03-25T04:32:13.019Z,0.63
2023-03-25T04:34:40.643Z,0.73
2023-03-25T04:37:08.203Z,0.55
2023-03-25T04:39:35.831Z,0.80
2023-03-25T04:42:05.808Z,0.60
2023-03-25T04:44:38.846Z,0.60
2023-03-25T04:47:07.060Z,0.80
2023-03-25T04:49:34.629Z,0.70
2023-03-25T04:52:04.312Z,0.70
2023-03-25T04:54:32.045Z,0.60
2023-03-25T04:56:59.863Z,0.65
2023-03-25T04:59:28.825Z,0.60
2023-03-25T05:01:56.454Z,0.60
2023-03-25T05:04:24.881Z,0.98
2023-03-25T05:06:52.575Z,0.40
2023-03-25T05:09:22.219Z,0.57
2023-03-25T05:11:50.972Z,0.45
2023-03-25T05:14:19.856Z,0.80
2023-03-25T05:16:48.889Z,0.88
2023-03-25T05:19:18.752Z,0.90
2023-03-25T05:21:46.539Z,0.73
2023-03-25T05:24:14.515Z,0.75
2023-03-25T05:26:42.627Z,0.52
2023-03-25T05:29:13.881Z,1.02
2023-03-25T05:31:42.076Z,0.80
2023-03-25T05:34:11.047Z,0.50
2023-03-25T05:36:38.646Z,0.40
2023-03-25T05:39:06.483Z,0.60
2023-03-25T05:41:38.883Z,0.73
2023-03-25T05:44:07.222Z,0.88
2023-03-25T05:46:34.893Z,0.85
2023-03-25T05:49:02.458Z,0.60
2023-03-25T05:51:34.073Z,0.70
2023-03-25T05:54:02.075Z,0.40
2023-03-25T05:56:29.851Z,0.80
2023-03-25T05:58:57.691Z,0.50
2023-03-25T06:01:33.023Z,0.82
2023-03-25T06:04:02.392Z,0.60
2023-03-25T06:06:34.233Z,0.50
2023-03-25T06:09:02.379Z,0.28
2023-03-25T06:11:30.390Z,0.50
2023-03-25T06:13:58.015Z,0.60
2023-03-25T06:16:27.964Z,0.63
2023-03-25T06:18:59.515Z,0.50
2023-03-25T06:21:27.981Z,0.45
2023-03-25T06:23:58.610Z,0.80
2023-03-25T06:26:26.421Z,0.60
2023-03-25T06:28:54.625Z,0.70
2023-03-25T06:31:26.445Z,0.50
2023-03-25T06:33:56.227Z,0.57
2023-03-25T06:36:25.310Z,0.60
2023-03-25T06:38:53.217Z,0.80
2023-03-25T06:41:25.096Z,0.70
2023-03-25T06:44:24.724Z,0.60
2023-03-25T06:47:12.894Z,0.82
2023-03-25T06:49:44.926Z,0.75
2023-03-25T06:52:12.927Z,0.60
2023-03-25T06:54:40.503Z,0.90
2023-03-25T06:57:09.896Z,0.93
2023-03-25T06:59:37.533Z,0.57
2023-03-25T07:02:06.664Z,0.88
2023-03-25T07:04:34.434Z,0.57
2023-03-25T07:07:01.974Z,0.30
2023-03-25T07:09:29.576Z,0.93
2023-03-25T07:11:57.140Z,0.73
2023-03-25T07:14:26.143Z,0.65
2023-03-25T07:16:53.722Z,0.90
2023-03-25T07:19:21.328Z,1.08
2023-03-25T07:21:48.882Z,0.82
2023-03-25T07:24:16.480Z,0.65
2023-03-25T07:26:44.078Z,1.13
2023-03-25T07:29:13.379Z,0.80
2023-03-25T07:31:42.391Z,0.80
2023-03-25T07:34:10.045Z,0.65
2023-03-25T07:36:37.594Z,0.60
2023-03-25T07:39:06.105Z,0.82
2023-03-25T07:41:33.706Z,1.05
2023-03-25T07:44:11.342Z,1.15
2023-03-25T07:46:39.945Z,0.77
2023-03-25T07:49:08.875Z,0.90
2023-03-25T07:51:36.452Z,0.68
2023-03-25T07:54:04.849Z,1.05
2023-03-25T07:56:33.235Z,0.55
2023-03-25T07:59:01.195Z,0.32
2023-03-25T08:01:28.809Z,1.00
2023-03-25T08:03:56.413Z,0.88
2023-03-25T08:06:25.406Z,0.90
2023-03-25T08:08:53.044Z,0.50
2023-03-25T08:11:20.622Z,1.23
2023-03-25T08:13:48.182Z,0.95
2023-03-25T08:16:16.002Z,1.00
2023-03-25T08:18:45.229Z,0.90
2023-03-25T08:21:13.307Z,0.88
2023-03-25T08:23:44.480Z,0.70
2023-03-25T08:26:12.112Z,0.88
2023-03-25T08:28:39.734Z,1.00
2023-03-25T08:31:08.826Z,0.82
2023-03-25T08:33:40.847Z,0.77
2023-03-25T08:36:10.106Z,0.70
2023-03-25T08:38:37.758Z,0.77
2023-03-25T08:41:06.786Z,0.60
2023-03-25T08:43:34.375Z,0.95
2023-03-25T08:46:01.999Z,0.63
2023-03-25T08:48:29.642Z,0.68
2023-03-25T08:50:57.303Z,0.77
2023-03-25T08:53:24.892Z,1.00
2023-03-25T08:55:53.860Z,0.90
2023-03-25T08:58:22.947Z,0.65
2023-03-25T09:00:54.381Z,1.30
2023-03-25T09:03:22.325Z,0.90
2023-03-25T09:05:50.397Z,1.02
2023-03-25T09:08:18.248Z,1.02
2023-03-25T09:10:45.843Z,1.02
2023-03-25T09:13:13.485Z,1.20
2023-03-25T09:15:42.607Z,1.48
2023-03-25T09:18:10.237Z,0.90
2023-03-25T09:20:37.829Z,1.38
2023-03-25T09:23:05.602Z,1.40
2023-03-25T09:25:33.375Z,1.20
2023-03-25T09:28:00.951Z,1.65
2023-03-25T09:30:28.563Z,1.35
2023-03-25T09:32:57.566Z,1.20
2023-03-25T09:35:25.193Z,1.45
2023-03-25T09:37:53.183Z,1.23
2023-03-25T09:40:21.813Z,1.75
2023-03-25T09:42:56.146Z,2.13
2023-03-25T09:45:30.075Z,1.48
2023-03-25T09:48:02.088Z,1.13
2023-03-25T09:50:30.780Z,1.67
2023-03-25T09:53:00.815Z,1.42
2023-03-25T09:55:30.307Z,1.50
2023-03-25T09:58:01.712Z,1.55
2023-03-25T10:00:29.456Z,1.90
2023-03-25T10:03:08.911Z,1.08
2023-03-25T10:05:51.588Z,1.90
2023-03-25T10:08:26.392Z,1.55
2023-03-25T10:10:56.564Z,1.70
2023-03-25T10:13:28.331Z,1.35
2023-03-25T10:15:58.962Z,1.55
2023-03-25T10:18:37.189Z,1.73
2023-03-25T10:21:09.402Z,1.77
2023-03-25T10:23:39.044Z,1.60
2023-03-25T10:26:10.269Z,1.70
2023-03-25T10:28:43.463Z,1.55
2023-03-25T10:31:15.830Z,1.67
2023-03-25T10:33:51.433Z,1.83
2023-03-25T10:36:21.442Z,1.85
2023-03-25T10:38:52.332Z,1.83
2023-03-25T10:41:23.823Z,2.08
2023-03-25T10:43:52.013Z,1.60
2023-03-25T10:46:23.658Z,1.75
2023-03-25T10:48:52.672Z,1.88
2023-03-25T10:51:22.006Z,1.75
2023-03-25T10:53:52.880Z,1.45
2023-03-25T10:56:22.947Z,1.80
2023-03-25T10:58:52.768Z,1.55
2023-03-25T11:01:21.472Z,1.80
2023-03-25T11:03:51.949Z,1.25
2023-03-25T11:06:24.621Z,1.80
2023-03-25T11:08:57.450Z,1.80
2023-03-25T11:11:32.228Z,1.83
2023-03-25T11:13:59.814Z,1.20
2023-03-25T11:16:28.292Z,1.73
2023-03-25T11:18:56.050Z,1.55
2023-03-25T11:21:25.106Z,1.70
2023-03-25T11:23:53.087Z,1.75
2023-03-25T11:26:21.834Z,1.65
2023-03-25T11:28:50.182Z,1.75
2023-03-25T11:31:18.706Z,1.80
2023-03-25T11:33:47.384Z,1.52
2023-03-25T11:36:22.887Z,1.60
2023-03-25T11:38:57.704Z,1.50
2023-03-25T11:41:28.477Z,1.90
2023-03-25T11:43:56.974Z,1.60
2023-03-25T11:46:24.866Z,1.63
2023-03-25T11:48:52.536Z,1.85
2023-03-25T11:51:21.815Z,1.58
2023-03-25T11:53:51.020Z,1.90
2023-03-25T11:56:22.279Z,2.28
2023-03-25T11:58:51.812Z,1.65
2023-03-25T12:01:25.943Z,1.67
2023-03-25T12:03:53.710Z,1.88
2023-03-25T12:06:22.581Z,1.38
2023-03-25T12:08:51.025Z,1.60
2023-03-25T12:11:21.632Z,1.60
2023-03-25T12:13:54.562Z,1.63
2023-03-25T12:16:27.457Z,1.40
2023-03-25T12:19:01.848Z,1.70
2023-03-25T12:21:35.567Z,1.17
2023-03-25T12:24:09.682Z,1.67
2023-03-25T12:26:41.694Z,1.10
2023-03-25T12:29:13.365Z,1.13
2023-03-25T12:31:48.352Z,1.80
2023-03-25T12:34:22.037Z,1.52
2023-03-25T12:36:55.497Z,1.48
2023-03-25T12:39:42.792Z,1.42
2023-03-25T12:42:16.669Z,1.50
2023-03-25T12:44:51.687Z,1.13
2023-03-25T12:47:24.470Z,0.88
2023-03-25T12:49:57.050Z,1.05
2023-03-25T12:52:27.633Z,1.05
2023-03-25T12:55:03.721Z,1.08
2023-03-25T12:57:43.857Z,1.30
2023-03-25T13:00:29.347Z,1.35
2023-03-25T13:03:12.597Z,0.77
2023-03-25T13:05:42.813Z,1.10
2023-03-25T13:08:16.261Z,1.17
2023-03-25T13:10:44.487Z,1.00
2023-03-25T13:13:15.015Z,1.10
2023-03-25T13:15:44.924Z,1.13
2023-03-25T13:18:14.962Z,0.70
2023-03-25T13:20:44.260Z,1.08
2023-03-25T13:23:14.821Z,0.50
2023-03-25T13:25:45.671Z,1.60
2023-03-25T13:28:17.660Z,1.27
2023-03-25T13:30:47.548Z,1.33
2023-03-25T13:33:16.599Z,1.15
2023-03-25T13:35:45.815Z,1.23
2023-03-25T13:38:15.666Z,1.00
2023-03-25T13:40:47.181Z,0.90
2023-03-25T13:43:19.551Z,1.05
2023-03-25T13:45:51.058Z,1.00
2023-03-25T13:48:20.057Z,1.02
2023-03-25T13:50:47.858Z,1.13
2023-03-25T13:53:18.447Z,1.42
2023-03-25T13:55:51.214Z,0.80
2023-03-25T13:58:40.332Z,1.50
2023-03-25T14:01:20.855Z,0.85
2023-03-25T14:04:03.701Z,0.80
2023-03-25T14:06:37.880Z,0.90
2023-03-25T14:09:20.308Z,0.77
2023-03-25T14:11:49.550Z,0.80
2023-03-25T14:14:19.180Z,1.15
2023-03-25T14:16:48.092Z,1.20
2023-03-25T14:19:16.708Z,1.00
2023-03-25T14:21:45.651Z,1.50
2023-03-25T14:24:14.719Z,0.75
2023-03-25T14:26:43.943Z,1.17
2023-03-25T14:29:19.223Z,0.80
2023-03-25T14:32:02.237Z,1.50
2023-03-25T14:34:29.877Z,0.82
2023-03-25T14:37:28.872Z,0.80
2023-03-25T14:39:59.869Z,1.45
2023-03-25T14:42:29.261Z,1.10
2023-03-25T14:45:14.102Z,0.95
2023-03-25T14:47:52.122Z,1.58
2023-03-25T14:50:31.601Z,1.08
2023-03-25T14:53:00.928Z,1.00
2023-03-25T14:55:29.612Z,1.10
2023-03-25T14:57:59.054Z,0.50
2023-03-25T15:00:29.761Z,0.77
2023-03-25T15:03:01.933Z,1.13
2023-03-25T15:05:31.245Z,0.70
2023-03-25T15:08:00.311Z,0.98
2023-03-25T15:10:30.376Z,1.10
2023-03-25T15:13:01.786Z,0.90
2023-03-25T15:15:34.075Z,0.70
2023-03-25T15:18:03.013Z,0.47
2023-03-25T15:20:35.823Z,1.20
2023-03-25T15:23:22.206Z,0.93
2023-03-25T15:25:51.178Z,0.85
2023-03-25T15:28:23.580Z,0.68
2023-03-25T15:31:06.680Z,1.05
2023-03-25T15:33:41.488Z,1.00
2023-03-25T15:36:22.850Z,0.90
2023-03-25T15:39:02.089Z,0.88
2023-03-25T15:41:44.254Z,0.90
2023-03-25T15:44:26.690Z,0.70
2023-03-25T15:47:00.618Z,0.57
2023-03-25T15:49:42.112Z,0.52
2023-03-25T15:52:24.697Z,0.60
2023-03-25T15:54:54.084Z,0.90
2023-03-25T15:57:24.307Z,1.08
2023-03-25T15:59:55.152Z,1.10
2023-03-25T16:02:27.392Z,1.17
2023-03-25T16:04:56.845Z,1.00
2023-03-25T16:07:25.514Z,0.95
2023-03-25T16:09:53.280Z,0.85
2023-03-25T16:12:22.858Z,0.82
2023-03-25T16:14:51.067Z,0.60
2023-03-25T16:17:19.440Z,0.85
2023-03-25T16:19:50.393Z,1.02
2023-03-25T16:22:21.463Z,0.30
2023-03-25T16:24:49.739Z,1.27
2023-03-25T16:27:21.557Z,0.52
2023-03-25T16:29:49.553Z,0.70
2023-03-25T16:32:19.568Z,0.68
2023-03-25T16:34:47.376Z,1.13
2023-03-25T16:37:16.045Z,0.90
2023-03-25T16:39:45.021Z,0.90
2023-03-25T16:42:16.562Z,0.77
2023-03-25T16:44:44.252Z,0.68
2023-03-25T16:47:12.909Z,1.00
2023-03-25T16:49:42.149Z,1.13
2023-03-25T16:52:11.915Z,0.68
2023-03-25T16:54:45.056Z,0.60
2023-03-25T16:57:16.470Z,0.80
2023-03-25T16:59:46.657Z,1.10
2023-03-25T17:02:25.447Z,1.15
2023-03-25T17:04:55.928Z,0.75
2023-03-25T17:07:26.722Z,0.77
2023-03-25T17:09:55.751Z,1.23
2023-03-25T17:12:25.574Z,0.85
2023-03-25T17:14:56.513Z,0.68
2023-03-25T17:17:33.139Z,0.75
2023-03-25T17:20:05.781Z,0.90
2023-03-25T17:22:34.087Z,1.08
2023-03-25T17:25:13.142Z,0.55
2023-03-25T17:27:43.461Z,1.13
2023-03-25T17:30:19.402Z,1.30
2023-03-25T17:32:47.571Z,0.80
2023-03-25T17:35:20.323Z,0.63
2023-03-25T17:37:49.029Z,0.85
2023-03-25T17:40:21.017Z,0.70
2023-03-25T17:42:50.228Z,0.80
2023-03-25T17:45:19.158Z,1.20
2023-03-25T17:47:46.887Z,1.00
2023-03-25T17:50:15.734Z,0.73
2023-03-25T17:52:43.357Z,0.43
2023-03-25T17:55:11.266Z,0.85
2023-03-25T17:57:39.069Z,0.93
2023-03-25T18:00:10.847Z,0.60
2023-03-25T18:02:40.819Z,0.90
2023-03-25T18:05:09.364Z,0.88
2023-03-25T18:07:36.974Z,0.40
2023-03-25T18:10:08.295Z,1.20
2023-03-25T18:12:35.895Z,0.95
2023-03-25T18:15:03.490Z,0.50
2023-03-25T18:17:32.730Z,0.93
2023-03-25T18:20:00.384Z,0.60
2023-03-25T18:22:27.969Z,0.65
2023-03-25T18:24:55.527Z,1.15
2023-03-25T18:27:33.284Z,0.93
2023-03-25T18:30:16.628Z,0.75
2023-03-25T18:32:45.583Z,0.52
2023-03-25T18:35:13.242Z,0.40
2023-03-25T18:37:41.655Z,1.10
2023-03-25T18:40:28.269Z,0.95
2023-03-25T18:42:56.273Z,0.60
2023-03-25T18:45:24.778Z,1.05
2023-03-25T18:47:53.943Z,1.13
2023-03-25T18:50:24.930Z,1.17
2023-03-25T18:52:52.590Z,1.10
2023-03-25T18:55:20.180Z,0.90
2023-03-25T18:57:47.800Z,1.23
2023-03-25T19:00:18.945Z,1.30
2023-03-25T19:02:46.730Z,1.17
2023-03-25T19:05:16.049Z,1.02
2023-03-25T19:07:43.670Z,0.80
2023-03-25T19:10:15.224Z,0.65
2023-03-25T19:12:44.236Z,0.52
2023-03-25T19:15:12.479Z,1.27
2023-03-25T19:17:40.310Z,0.75
2023-03-25T19:20:09.303Z,1.17
2023-03-25T19:22:38.249Z,0.93
2023-03-25T19:25:07.444Z,0.77
2023-03-25T19:27:35.080Z,1.38
2023-03-25T19:30:02.635Z,0.93
2023-03-25T19:32:30.947Z,1.02
2023-03-25T19:34:58.525Z,0.80
2023-03-25T19:37:30.436Z,1.20
2023-03-25T19:39:59.330Z,0.80
2023-03-25T19:42:26.898Z,1.30
2023-03-25T19:44:54.890Z,1.17
2023-03-25T19:47:22.517Z,0.70
2023-03-25T19:49:50.071Z,1.17
2023-03-25T19:52:17.670Z,0.90
2023-03-25T19:54:46.783Z,1.40
2023-03-25T19:57:15.811Z,1.17
2023-03-25T19:59:44.248Z,0.85
2023-03-25T20:02:12.015Z,1.60
2023-03-25T20:04:41.447Z,1.02
2023-03-25T20:07:08.971Z,0.88
2023-03-25T20:09:36.541Z,0.90
2023-03-25T20:12:04.280Z,1.17
2023-03-25T20:14:33.202Z,1.23
2023-03-25T20:17:00.926Z,1.30
2023-03-25T20:19:28.478Z,1.27
2023-03-25T20:21:56.026Z,0.57
2023-03-25T20:24:23.669Z,0.82
2023-03-25T20:26:51.222Z,1.48
2023-03-25T20:29:19.666Z,1.50
2023-03-25T20:31:48.649Z,1.10
2023-03-25T20:34:16.269Z,0.98
2023-03-25T20:36:43.908Z,1.10
2023-03-25T20:39:11.474Z,0.98
2023-03-25T20:41:39.195Z,1.33
2023-03-25T20:44:06.809Z,1.35
2023-03-25T20:46:34.445Z,1.40
2023-03-25T20:49:05.503Z,1.42
2023-03-25T20:51:33.082Z,1.10
2023-03-25T20:54:00.646Z,0.95
2023-03-25T20:56:28.238Z,1.42
2023-03-25T20:58:55.893Z,1.05
2023-03-25T21:01:23.617Z,0.88
2023-03-25T21:03:51.737Z,0.85
2023-03-25T21:06:24.583Z,1.38
2023-03-25T21:08:54.717Z,1.02
2023-03-25T21:11:22.629Z,0.80
2023-03-25T21:13:50.225Z,1.20
2023-03-25T21:16:17.966Z,0.95
2023-03-25T21:18:47.537Z,1.95
2023-03-25T21:21:15.114Z,0.90
2023-03-25T21:23:44.612Z,1.30
2023-03-25T21:26:13.299Z,1.23
2023-03-25T21:28:40.881Z,0.95
2023-03-25T21:31:09.439Z,1.42
2023-03-25T21:33:38.054Z,1.13
2023-03-25T21:36:06.360Z,0.95
2023-03-25T21:38:34.472Z,1.38
2023-03-25T21:41:04.848Z,0.90
2023-03-25T21:43:32.528Z,1.17
2023-03-25T21:46:05.336Z,1.25
2023-03-25T21:48:33.783Z,0.95
2023-03-25T21:51:01.656Z,0.77
2023-03-25T21:53:31.176Z,0.88
2023-03-25T21:56:00.353Z,0.95
2023-03-25T21:58:29.313Z,0.98
2023-03-25T22:00:59.304Z,0.88
2023-03-25T22:03:29.625Z,1.60
2023-03-25T22:06:02.060Z,1.13
2023-03-25T22:08:29.809Z,1.02
2023-03-25T22:11:01.988Z,0.93
2023-03-25T22:13:31.081Z,0.80
2023-03-25T22:15:59.139Z,0.70
2023-03-25T22:18:26.905Z,0.70
2023-03-25T22:20:54.524Z,0.90
2023-03-25T22:23:22.174Z,1.48
2023-03-25T22:25:49.809Z,1.45
2023-03-25T22:28:17.408Z,1.33
2023-03-25T22:30:46.426Z,0.73
2023-03-25T22:33:13.990Z,0.85
2023-03-25T22:35:41.589Z,1.08
2023-03-25T22:38:09.278Z,2.00
2023-03-25T22:40:36.861Z,0.85
2023-03-25T22:43:04.464Z,1.00
2023-03-25T22:45:32.041Z,0.85
2023-03-25T22:48:01.011Z,0.70
2023-03-25T22:50:30.509Z,1.08
2023-03-25T22:52:58.174Z,0.60
2023-03-25T22:55:25.766Z,0.50
2023-03-25T22:57:53.371Z,1.20
2023-03-25T23:00:21.871Z,0.88
2023-03-25T23:02:49.624Z,1.30
2023-03-25T23:05:19.487Z,0.75
2023-03-25T23:07:47.125Z,1.23
2023-03-25T23:10:15.911Z,0.45
2023-03-25T23:12:43.634Z,0.50
2023-03-25T23:15:11.565Z,0.75
2023-03-25T23:17:39.159Z,1.25
2023-03-25T23:20:08.967Z,1.23
2023-03-25T23:22:37.901Z,0.73
2023-03-25T23:25:05.923Z,1.38
2023-03-25T23:27:34.097Z,0.90
2023-03-25T23:30:01.754Z,0.82
2023-03-25T23:32:29.463Z,0.73
2023-03-25T23:34:58.190Z,1.05
2023-03-25T23:37:27.179Z,0.85
2023-03-25T23:39:56.096Z,1.00
2023-03-25T23:42:23.664Z,0.70
2023-03-25T23:45:03.572Z,0.98
2023-03-25T23:47:31.424Z,0.68
2023-03-25T23:50:01.893Z,0.80
2023-03-25T23:52:29.528Z,0.63
2023-03-25T23:54:58.454Z,1.08
2023-03-25T23:57:26.032Z,0.77
2023-03-25T23:59:53.633Z,1.55
